Flight Track Log - Related Links

Times and Time Zones

All times are in EDT time to prevent confusion due to time zone crossing. See the TCF5995 flight status page for this flight to view local times or setup timezone preferences in your user account.

Time Position Orientation Groundspeed Altitude Reporting Facility
EDT Latitude Longitude Course Direction KTS MPH feet Rate Location/Type
Sun 06:26:07 PM 40.8186 -73.8778 270° West 160 184 1,700  Level New York Center
Sun 06:27:06 PM 40.8686 -73.8856 353° North 223 257 3,100 1,650 Climbing New York Center
Sun 06:28:00 PM 40.6876 -74.2895 254° West  Level Estimated
Sun 06:28:07 PM 40.9164 -73.9675 308° West 260 299 5,000  Level New York Center
Sun 06:29:00 PM 40.7648 -74.3919 315° West  Level FlightAware Approximate
Sun 06:29:05 PM 40.9539 -74.0350 306° West 266 306 7,200  Level New York Center
Sun 06:30:00 PM 40.7834 -74.5058 270° West  Level FlightAware Approximate
Sun 06:30:06 PM 40.9492 -74.1364 267° West 278 320 10,300  Level New York Center
Sun 06:31:00 PM 40.7833 -74.6503 270° West  Level FlightAware Approximate
Sun 06:31:06 PM 40.9336 -74.2428 259° West 303 349 12,200  Level New York Center
Sun 06:32:07 PM 40.9200 -74.3492 260° West 317 365 15,100 2,281 Climbing New York Center
Sun 06:33:07 PM 40.9017 -74.4664 258° West 329 379 16,800 942 Climbing New York Center
Sun 06:34:08 PM 40.8853 -74.5861 260° West 335 386 17,000 100 Climbing New York Center
Sun 06:35:07 PM 40.8669 -74.7031 258° West 335 386 17,000 800 Level New York Center
Sun 06:36:08 PM 40.8503 -74.8256 260° West 335 386 18,600 1,587 Climbing New York Center
Sun 06:37:08 PM 40.8319 -74.9369 258° West 340 391 20,200 1,729 Climbing New York Center
Sun 06:38:06 PM 40.8147 -75.0647 260° West 350 403 22,000 1,664 Climbing New York Center
Sun 06:39:07 PM 40.7933 -75.1978 258° West 361 415 23,500 1,513 Climbing New York Center
Sun 06:40:05 PM 40.7586 -75.3433 253° West 368 423 25,000 1,412 Climbing New York Center
Sun 06:41:06 PM 40.7206 -75.4586 246° West 374 430 26,300 1,328 Climbing New York Center
Sun 06:42:07 PM 40.6714 -75.5922 244° Southwest 392 451 27,700 1,190 Climbing New York Center
Sun 06:43:07 PM 40.6242 -75.7283 245° Southwest 397 457 28,700 958 Climbing New York Center
Sun 06:44:06 PM 40.5769 -75.8614 245° Southwest 404 465 29,600 1,000 Climbing New York Center
Sun 06:45:07 PM 40.5136 -76.0178 242° Southwest 428 493 30,700 942 Climbing New York Center
Sun 06:46:07 PM 40.4658 -76.1589 246° West 428 493 31,500 1,068 Climbing New York Center
Sun 06:47:05 PM 40.4156 -76.2967 244° Southwest 428 493 32,800 958 Climbing New York Center
Sun 06:48:06 PM 40.3653 -76.4344 244° Southwest 428 493 33,400 600 Climbing New York Center
Sun 06:49:05 PM 40.3169 -76.5719 245° Southwest 428 493 34,000 298 Climbing New York Center
Sun 06:50:07 PM 40.2789 -76.7103 250° West 423 487 34,000  Level New York Center
Sun 06:51:05 PM 40.2406 -76.8486 250° West 418 481 34,000  Level New York Center
Sun 06:52:07 PM 40.2019 -76.9864 250° West 413 475 34,000  Level New York Center
Sun 06:53:05 PM 40.1636 -77.1217 250° West 408 470 34,000  Level New York Center
Sun 06:55:23 PM 40.0811 -77.4283 251° West 407 468 34,000  Level Cleveland Center
Sun 06:56:25 PM 40.0417 -77.5683 250° West 407 468 34,000  Level Cleveland Center
Sun 06:57:27 PM 40.0022 -77.7072 250° West 408 470 34,000  Level Cleveland Center
Sun 06:58:30 PM 39.9558 -77.8747 250° West 408 470 34,000  Level Cleveland Center
Sun 06:59:32 PM 39.9158 -78.0119 249° West 408 470 34,000  Level Cleveland Center
Sun 07:00:34 PM 39.8764 -78.1508 250° West 408 470 34,000  Level Cleveland Center
Sun 07:01:37 PM 39.8367 -78.2883 249° West 408 470 34,000  Level Cleveland Center
Sun 07:02:39 PM 39.7953 -78.4278 249° West 410 472 34,000  Level Cleveland Center
Sun 07:03:41 PM 39.7472 -78.5925 249° West 410 472 34,000  Level Cleveland Center
Sun 07:04:43 PM 39.7067 -78.7306 249° West 410 472 34,000  Level Cleveland Center
Sun 07:05:45 PM 39.6658 -78.8678 249° West 410 472 34,000  Level Cleveland Center
Sun 07:06:47 PM 39.6289 -78.9931 249° West 410 472 34,000  Level Cleveland Center
Sun 07:07:50 PM 39.5797 -79.1572 249° West 410 472 34,000  Level Cleveland Center
Sun 07:08:52 PM 39.5394 -79.2933 249° West 407 468 34,000  Level Cleveland Center
Sun 07:09:54 PM 39.4972 -79.4306 248° West 408 470 34,000  Level Cleveland Center
Sun 07:10:56 PM 39.4564 -79.5672 249° West 408 470 34,000  Level Cleveland Center
Sun 07:11:58 PM 39.4144 -79.7036 248° West 408 470 34,000  Level Cleveland Center
Sun 07:13:00 PM 39.3731 -79.8400 249° West 408 470 34,000  Level Cleveland Center
Sun 07:14:03 PM 39.3217 -80.0036 248° West 408 470 34,000  Level Cleveland Center
Sun 07:15:05 PM 39.2797 -80.1403 248° West 408 470 34,000  Level Cleveland Center
Sun 07:16:07 PM 39.2375 -80.2742 248° West 408 470 34,000  Level Cleveland Center
Sun 07:17:09 PM 39.1956 -80.4106 248° West 407 468 34,000  Level Cleveland Center
Sun 07:18:11 PM 39.1528 -80.5444 248° West 406 467 34,000  Level Cleveland Center
Sun 07:19:13 PM 39.1117 -80.6786 248° West 405 466 34,000  Level Cleveland Center
Sun 07:20:16 PM 39.0619 -80.8361 248° West 400 460 34,000  Level Cleveland Center
Sun 07:21:18 PM 39.0189 -80.9658 247° West 398 458 34,000  Level Cleveland Center
Sun 07:22:20 PM 38.9797 -81.0917 248° West 398 458 34,000  Level Cleveland Center
Sun 07:23:22 PM 38.9367 -81.2225 247° West 398 458 34,000  Level Cleveland Center
Sun 07:24:24 PM 38.8867 -81.3781 248° West 397 457 34,000  Level Cleveland Center
Sun 07:25:26 PM 38.8450 -81.5097 248° West 397 457 34,000  Level Cleveland Center
Sun 07:26:29 PM 38.8008 -81.6411 247° West 398 458 34,000  Level Cleveland Center
Sun 07:27:31 PM 38.7569 -81.7742 247° West 404 465 34,000  Level Cleveland Center
Sun 07:28:33 PM 38.7136 -81.9081 248° West 405 466 34,000  Level Cleveland Center
Sun 07:29:35 PM 38.6681 -82.0431 247° West 409 471 34,000  Level Cleveland Center
Sun 07:30:48 PM 38.6100 -82.2206 247° West 407 468 34,000  Level Indianapolis Center
Sun 07:31:50 PM 38.5650 -82.3528 247° West 407 468 34,000  Level Indianapolis Center
Sun 07:32:51 PM 38.5200 -82.4867 247° West 407 468 34,000  Level Indianapolis Center
Sun 07:33:53 PM 38.4725 -82.6236 246° West 407 468 34,000  Level Indianapolis Center
Sun 07:34:55 PM 38.4272 -82.7592 247° West 411 473 34,000  Level Indianapolis Center
Sun 07:35:57 PM 38.3736 -82.9172 247° West 413 475 34,000  Level Indianapolis Center
Sun 07:36:59 PM 38.3283 -83.0519 247° West 414 476 34,000  Level Indianapolis Center
Sun 07:38:00 PM 38.2806 -83.1856 246° West 414 476 34,000  Level Indianapolis Center
Sun 07:39:02 PM 38.2339 -83.3225 247° West 418 481 34,000  Level Indianapolis Center
Sun 07:40:04 PM 38.1867 -83.4583 246° West 418 481 34,000  Level Indianapolis Center
Sun 07:41:06 PM 38.1397 -83.5925 246° West 418 481 34,000  Level Indianapolis Center
Sun 07:42:08 PM 38.0847 -83.7475 246° West 417 480 34,000  Level Indianapolis Center
Sun 07:43:09 PM 38.0381 -83.8817 246° West 417 480 34,000  Level Indianapolis Center
Sun 07:44:11 PM 37.9908 -84.0153 246° West 417 480 34,000  Level Indianapolis Center
Sun 07:45:13 PM 37.9428 -84.1497 246° West 417 480 34,000  Level Indianapolis Center
Sun 07:46:15 PM 37.8953 -84.2831 246° West 417 480 34,000  Level Indianapolis Center
Sun 07:47:17 PM 37.8469 -84.4175 246° West 418 481 34,000  Level Indianapolis Center
Sun 07:48:18 PM 37.7892 -84.5742 245° Southwest 418 481 34,000  Level Indianapolis Center
Sun 07:49:20 PM 37.7406 -84.7086 245° Southwest 418 481 34,000  Level Indianapolis Center
Sun 07:50:22 PM 37.6925 -84.8411 245° Southwest 418 481 34,000  Level Indianapolis Center
Sun 07:51:24 PM 37.6444 -84.9742 246° West 418 481 34,000  Level Indianapolis Center
Sun 07:52:26 PM 37.5972 -85.1056 246° West 418 481 34,000  Level Indianapolis Center
Sun 07:53:27 PM 37.5458 -85.2378 244° Southwest 417 480 34,000  Level Indianapolis Center
Sun 07:54:29 PM 37.4906 -85.3928 246° West 417 480 34,000  Level Indianapolis Center
Sun 07:55:31 PM 37.4386 -85.5317 245° Southwest 423 487 34,000  Level Indianapolis Center
Sun 07:56:33 PM 37.3894 -85.6650 245° Southwest 423 487 34,000  Level Indianapolis Center
Sun 07:57:35 PM 37.3389 -85.7992 245° Southwest 423 487 34,000  Level Indianapolis Center
Sun 07:58:37 PM 37.2697 -85.9303 236° Southwest 426 490 34,000  Level Indianapolis Center
Sun 07:59:38 PM 37.2047 -86.0517 236° Southwest 421 484 34,000  Level Indianapolis Center
Sun 08:00:30 PM 37.1514 -86.1544 237° Southwest 421 484 34,000  Level Memphis Center
Sun 08:01:31 PM 37.0850 -86.2775 236° Southwest 421 484 34,000  Level Memphis Center
Sun 08:02:33 PM 37.0203 -86.4003 237° Southwest 421 484 34,000  Level Memphis Center
Sun 08:03:35 PM 36.9531 -86.5206 235° Southwest 421 484 34,000  Level Memphis Center
Sun 08:04:36 PM 36.8869 -86.6442 236° Southwest 422 486 34,000  Level Memphis Center
Sun 08:05:38 PM 36.8597 -86.8106 258° West 431 496 34,000  Level Memphis Center
Sun 08:06:39 PM 36.8900 -86.9550 285° West 432 497 34,000  Level Memphis Center
Sun 08:07:41 PM 36.9306 -87.0992 289° West 433 498 34,000 387 Level Memphis Center
Sun 08:08:43 PM 36.9744 -87.2425 291° West 436 502 34,800 976 Climbing Memphis Center
Sun 08:09:44 PM 36.9986 -87.3858 282° West 424 488 36,000 585 Climbing Memphis Center
Sun 08:10:46 PM 36.9889 -87.5308 265° West 419 482 36,000  Level Memphis Center
Sun 08:11:47 PM 36.9758 -87.6744 264° West 417 480 36,000  Level Memphis Center
Sun 08:12:49 PM 36.9669 -87.8150 266° West 410 472 36,000  Level Memphis Center
Sun 08:13:51 PM 36.9583 -87.9556 266° West 407 468 36,000  Level Memphis Center
Sun 08:14:52 PM 36.9467 -88.1178 265° West 402 463 36,000  Level Memphis Center
Sun 08:15:54 PM 36.9394 -88.2375 266° West 401 461 36,000  Level Memphis Center
Sun 08:16:55 PM 36.9331 -88.3736 267° West 396 456 36,000  Level Memphis Center
Sun 08:17:57 PM 36.9222 -88.5367 265° West 395 455 36,000  Level Memphis Center
Sun 08:18:58 PM 36.9108 -88.6717 264° West 395 455 36,000  Level Memphis Center
Sun 08:20:00 PM 36.8931 -88.8061 261° West 395 455 36,000  Level Memphis Center
Sun 08:21:01 PM 36.8778 -88.9397 262° West 393 452 36,000  Level Memphis Center
Sun 08:22:03 PM 36.8456 -89.0711 253° West 395 455 36,000  Level Memphis Center
Sun 08:23:04 PM 36.8119 -89.2008 252° West 395 455 36,000  Level Memphis Center
Sun 08:24:06 PM 36.7789 -89.3311 252° West 395 455 36,000  Level Memphis Center
Sun 08:25:07 PM 36.7394 -89.4858 252° West 395 455 36,000  Level Memphis Center
Sun 08:26:09 PM 36.7053 -89.6153 252° West 395 455 36,000  Level Memphis Center
Sun 08:27:10 PM 36.6719 -89.7458 252° West 395 455 36,000  Level Memphis Center
Sun 08:28:12 PM 36.6375 -89.8761 252° West 396 456 36,000  Level Memphis Center
Sun 08:29:13 PM 36.6025 -90.0078 252° West 398 458 36,000  Level Memphis Center
Sun 08:30:14 PM 36.5678 -90.1389 252° West 399 459 36,000  Level Memphis Center
Sun 08:31:16 PM 36.5328 -90.2708 252° West 400 460 36,000  Level Memphis Center
Sun 08:32:17 PM 36.4906 -90.4297 252° West 402 463 36,000  Level Memphis Center
Sun 08:33:19 PM 36.4550 -90.5642 252° West 403 464 36,000  Level Memphis Center
Sun 08:34:20 PM 36.4181 -90.6986 251° West 410 472 36,000  Level Memphis Center
Sun 08:35:21 PM 36.3828 -90.8331 252° West 410 472 36,000  Level Memphis Center
Sun 08:36:23 PM 36.3461 -90.9667 251° West 410 472 36,000  Level Memphis Center
Sun 08:37:24 PM 36.3094 -91.1011 251° West 410 472 36,000  Level Memphis Center
Sun 08:38:26 PM 36.2714 -91.2372 251° West 415 478 36,000  Level Memphis Center
Sun 08:39:27 PM 36.2356 -91.3728 252° West 415 478 36,000  Level Memphis Center
Sun 08:40:28 PM 36.1969 -91.5061 250° West 415 478 36,000  Level Memphis Center
Sun 08:41:30 PM 36.1528 -91.6661 251° West 413 475 36,000  Level Memphis Center
Sun 08:42:31 PM 36.1150 -91.8000 251° West 413 475 36,000  Level Memphis Center
Sun 08:43:33 PM 36.0772 -91.9319 251° West 412 474 36,000  Level Memphis Center
Sun 08:44:34 PM 36.0411 -92.0658 252° West 411 473 36,000  Level Memphis Center
Sun 08:45:36 PM 36.0000 -92.2083 250° West 411 473 36,000  Level Memphis Center
Sun 08:46:37 PM 35.9614 -92.3414 250° West 411 473 36,000  Level Memphis Center
Sun 08:47:38 PM 35.9233 -92.4769 251° West 415 478 36,000  Level Memphis Center
Sun 08:48:40 PM 35.8844 -92.6075 250° West 413 475 36,000  Level Memphis Center
Sun 08:49:41 PM 35.8467 -92.7367 250° West 408 470 36,000  Level Memphis Center
Sun 08:50:43 PM 35.8097 -92.8664 251° West 408 470 36,000  Level Memphis Center
Sun 08:51:44 PM 35.7706 -92.9931 249° West 404 465 36,000  Level Memphis Center
Sun 08:52:46 PM 35.6864 -93.1203 231° Southwest 407 468 36,000  Level Memphis Center
Sun 08:53:47 PM 35.6164 -93.2267 231° Southwest 407 468 36,000  Level Memphis Center
Sun 08:54:49 PM 35.5467 -93.3319 231° Southwest 403 464 36,000  Level Memphis Center
Sun 08:55:50 PM 35.4783 -93.4356 231° Southwest 402 463 36,000  Level Memphis Center
Sun 08:56:52 PM 35.4081 -93.5400 230° Southwest 402 463 36,000  Level Memphis Center
Sun 08:57:53 PM 35.3367 -93.6453 230° Southwest 402 463 36,000  Level Memphis Center
Sun 08:58:55 PM 35.2525 -93.7722 231° Southwest 402 463 36,000  Level Memphis Center
Sun 08:59:56 PM 35.1817 -93.8764 230° Southwest 401 461 36,000  Level Memphis Center
Sun 09:00:58 PM 35.1111 -93.9819 231° Southwest 400 460 36,000  Level Memphis Center
Sun 09:01:59 PM 35.0358 -94.0931 230° Southwest 410 472 36,000  Level Memphis Center
Sun 09:03:01 PM 34.9597 -94.2028 230° Southwest 416 479 36,000  Level Memphis Center
Sun 09:04:02 PM 34.8847 -94.3139 231° Southwest 418 481 36,000  Level Memphis Center
Sun 09:05:04 PM 34.8100 -94.4236 230° Southwest 420 483 36,000  Level Memphis Center
Sun 09:06:05 PM 34.7344 -94.5331 230° Southwest 420 483 36,000  Level Memphis Center
Sun 09:07:06 PM 34.6583 -94.6419 230° Southwest 421 484 36,000 -146 Level Memphis Center
Sun 09:08:08 PM 34.5669 -94.7728 230° Southwest 423 487 35,700 -829 Descending Memphis Center
Sun 09:09:09 PM 34.4531 -94.8050 193° South 430 495 34,300 -1,366 Descending Memphis Center
Sun 09:10:11 PM 34.3303 -94.8094 182° South 435 501 32,900 -1,355 Descending Memphis Center
Sun 09:11:13 PM 34.2061 -94.8153 182° South 441 507 31,500 -1,289 Descending Memphis Center
Sun 09:12:40 PM 34.0608 -94.8847 202° Southwest 416 479 29,700 -1,409 Descending Fort Worth Center
Sun 09:13:42 PM 33.9972 -95.0339 243° Southwest 427 491 28,000 -1,512 Descending Fort Worth Center
Sun 09:14:43 PM 33.9472 -95.1636 245° Southwest 431 496 26,600 -1,268 Descending Fort Worth Center
Sun 09:15:45 PM 33.8989 -95.2900 245° Southwest 419 482 25,400 -1,403 Descending Fort Worth Center
Sun 09:16:47 PM 33.8469 -95.4261 245° Southwest 446 513 23,700 -1,645 Descending Fort Worth Center
Sun 09:17:49 PM 33.7967 -95.5583 245° Southwest 440 506 22,000 -1,707 Descending Fort Worth Center
Sun 09:18:50 PM 33.7450 -95.6997 246° West 431 496 20,200 -1,659 Descending Fort Worth Center
Sun 09:19:52 PM 33.6967 -95.8253 245° Southwest 420 483 18,600 -1,548 Descending Fort Worth Center
Sun 09:20:54 PM 33.6417 -95.9639 245° Southwest 414 476 17,000 -1,561 Descending Fort Worth Center
Sun 09:21:55 PM 33.5953 -96.0839 245° Southwest 401 461 15,400 -1,561 Descending Fort Worth Center
Sun 09:22:57 PM 33.5453 -96.2106 245° Southwest 394 453 13,800 -1,452 Descending Fort Worth Center
Sun 09:23:59 PM 33.4764 -96.3061 229° Southwest 383 441 12,400 -1,317 Descending Fort Worth Center
Sun 09:25:00 PM 33.4092 -96.3861 225° Southwest 343 395 11,100 -1,073 Descending Fort Worth Center
Sun 09:26:02 PM 33.3453 -96.4617 225° Southwest 305 351 10,200 -1,024 Descending Fort Worth Center
Sun 09:27:03 PM 33.2869 -96.5319 225° Southwest 300 345 9,000 -1,366 Descending Fort Worth Center
Sun 09:28:05 PM 33.2564 -96.6225 248° West 276 318 7,400 -1,317 Descending Fort Worth Center
Sun 09:29:06 PM 33.2328 -96.7086 252° West 276 318 6,300 -1,073 Descending Fort Worth Center
Sun 09:30:08 PM 33.2103 -96.7925 252° West 270 311 5,200 -634 Descending Fort Worth Center
Sun 09:31:09 PM 33.1717 -96.8739 240° Southwest 270 311 5,000 -732 Descending Fort Worth Center
Sun 09:32:11 PM 33.1194 -96.9347 224° Southwest 265 305 3,700 -976 Descending Fort Worth Center
Sun 09:33:12 PM 33.0744 -96.9858 224° Southwest 223 257 3,000 -634 Descending Fort Worth Center
Sun 09:34:14 PM 33.0217 -97.0219 210° Southwest 207 238 2,400 -634 Descending Fort Worth Center
Sun 09:35:15 PM 32.9753 -97.0261 184° South 165 190 1,700 -683 Descending Fort Worth Center
Sun 09:36:17 PM 32.9375 -97.0269 181° South 134 154 1,000 -537 Descending Fort Worth Center
Sun 09:37:18 PM 32.8994 -97.0272 180° South 129 148 600 -393 Descending Fort Worth Center

Login

Don't have an account? Register now (free) for customized features, flight alerts, and more!